sensor_id;sensor_type;location;lat;lon;timestamp;pressure;altitude;pressure_sealevel;temperature;humidity
65013;BME280;51715;39.432;-77.518;2024-03-02T00:01:16;101029.24;;;12.41;26.73
65013;BME280;51715;39.432;-77.518;2024-03-02T00:03:45;101035.18;;;10.97;28.63
65013;BME280;51715;39.432;-77.518;2024-03-02T00:06:16;101031.76;;;11.75;28.49
65013;BME280;51715;39.432;-77.518;2024-03-02T00:08:49;101040.40;;;10.90;30.14
65013;BME280;51715;39.432;-77.518;2024-03-02T00:11:25;101029.76;;;11.29;29.91
65013;BME280;51715;39.432;-77.518;2024-03-02T00:13:54;101021.84;;;10.97;29.95
65013;BME280;51715;39.432;-77.518;2024-03-02T00:16:23;101015.89;;;10.81;30.20
65013;BME280;51715;39.432;-77.518;2024-03-02T00:18:51;101013.37;;;11.30;29.59
65013;BME280;51715;39.432;-77.518;2024-03-02T00:21:19;101011.34;;;11.62;29.14
65013;BME280;51715;39.432;-77.518;2024-03-02T00:23:50;101009.43;;;11.63;29.15
65013;BME280;51715;39.432;-77.518;2024-03-02T00:26:21;101011.59;;;11.39;29.47
65013;BME280;51715;39.432;-77.518;2024-03-02T00:28:50;101008.39;;;11.44;30.21
65013;BME280;51715;39.432;-77.518;2024-03-02T00:31:21;101008.48;;;12.05;29.18
65013;BME280;51715;39.432;-77.518;2024-03-02T00:33:53;101001.05;;;11.24;30.22
65013;BME280;51715;39.432;-77.518;2024-03-02T00:36:25;100999.97;;;11.49;29.67
65013;BME280;51715;39.432;-77.518;2024-03-02T00:38:54;101005.03;;;11.56;30.14
65013;BME280;51715;39.432;-77.518;2024-03-02T00:41:24;101008.05;;;10.71;31.74
65013;BME280;51715;39.432;-77.518;2024-03-02T00:43:59;101005.13;;;10.85;31.85
65013;BME280;51715;39.432;-77.518;2024-03-02T00:46:29;101009.63;;;10.63;31.58
65013;BME280;51715;39.432;-77.518;2024-03-02T00:49:03;101011.44;;;10.46;32.51
65013;BME280;51715;39.432;-77.518;2024-03-02T00:51:33;101013.70;;;10.82;32.02
65013;BME280;51715;39.432;-77.518;2024-03-02T00:54:05;101018.72;;;10.40;32.70
65013;BME280;51715;39.432;-77.518;2024-03-02T00:56:36;101023.92;;;10.36;32.66
65013;BME280;51715;39.432;-77.518;2024-03-02T00:59:04;101018.13;;;10.69;32.84
65013;BME280;51715;39.432;-77.518;2024-03-02T01:01:33;101017.42;;;10.51;32.85
65013;BME280;51715;39.432;-77.518;2024-03-02T01:04:12;101018.40;;;10.94;33.11
65013;BME280;51715;39.432;-77.518;2024-03-02T01:06:41;101015.03;;;10.96;33.03
65013;BME280;51715;39.432;-77.518;2024-03-02T01:09:13;101020.22;;;10.29;34.39
65013;BME280;51715;39.432;-77.518;2024-03-02T01:11:48;101018.24;;;10.70;33.45
65013;BME280;51715;39.432;-77.518;2024-03-02T01:14:24;101016.98;;;10.61;34.40
65013;BME280;51715;39.432;-77.518;2024-03-02T01:16:58;101008.15;;;10.89;34.25
65013;BME280;51715;39.432;-77.518;2024-03-02T01:19:35;101010.26;;;10.91;33.98
65013;BME280;51715;39.432;-77.518;2024-03-02T01:22:14;101003.62;;;9.71;36.27
65013;BME280;51715;39.432;-77.518;2024-03-02T01:24:45;100999.57;;;10.07;35.55
65013;BME280;51715;39.432;-77.518;2024-03-02T01:27:15;100999.74;;;9.29;37.43
65013;BME280;51715;39.432;-77.518;2024-03-02T01:29:43;101003.18;;;9.27;38.82
65013;BME280;51715;39.432;-77.518;2024-03-02T01:32:11;100999.52;;;8.92;39.02
65013;BME280;51715;39.432;-77.518;2024-03-02T01:34:40;100998.21;;;9.29;39.58
65013;BME280;51715;39.432;-77.518;2024-03-02T01:37:09;101001.46;;;9.70;38.43
65013;BME280;51715;39.432;-77.518;2024-03-02T01:39:40;100998.43;;;9.83;37.85
65013;BME280;51715;39.432;-77.518;2024-03-02T01:42:11;101000.92;;;10.18;37.51
65013;BME280;51715;39.432;-77.518;2024-03-02T01:44:40;101005.32;;;10.51;36.26
65013;BME280;51715;39.432;-77.518;2024-03-02T01:47:09;101003.36;;;10.11;35.62
65013;BME280;51715;39.432;-77.518;2024-03-02T01:49:40;101002.11;;;9.97;35.73
65013;BME280;51715;39.432;-77.518;2024-03-02T01:52:08;101002.83;;;10.24;35.64
65013;BME280;51715;39.432;-77.518;2024-03-02T01:54:37;101006.00;;;10.37;35.56
65013;BME280;51715;39.432;-77.518;2024-03-02T01:57:08;101002.32;;;9.78;37.00
65013;BME280;51715;39.432;-77.518;2024-03-02T01:59:38;100997.59;;;9.31;36.83
65013;BME280;51715;39.432;-77.518;2024-03-02T02:02:06;100994.02;;;9.71;36.21
65013;BME280;51715;39.432;-77.518;2024-03-02T02:04:35;100990.41;;;9.90;36.58
65013;BME280;51715;39.432;-77.518;2024-03-02T02:07:03;100988.29;;;10.12;35.85
65013;BME280;51715;39.432;-77.518;2024-03-02T02:09:32;100989.73;;;9.89;35.97
65013;BME280;51715;39.432;-77.518;2024-03-02T02:12:00;100985.28;;;9.91;35.92
65013;BME280;51715;39.432;-77.518;2024-03-02T02:14:29;100989.37;;;10.47;35.20
65013;BME280;51715;39.432;-77.518;2024-03-02T02:16:57;100982.52;;;10.29;35.06
65013;BME280;51715;39.432;-77.518;2024-03-02T02:19:24;100981.41;;;10.26;35.59
65013;BME280;51715;39.432;-77.518;2024-03-02T02:21:54;100981.68;;;10.70;35.04
65013;BME280;51715;39.432;-77.518;2024-03-02T02:24:23;100978.32;;;10.85;34.94
65013;BME280;51715;39.432;-77.518;2024-03-02T02:26:50;100979.16;;;10.22;35.39
65013;BME280;51715;39.432;-77.518;2024-03-02T02:29:19;100978.17;;;9.86;36.00
65013;BME280;51715;39.432;-77.518;2024-03-02T02:31:49;100969.78;;;10.54;36.19
65013;BME280;51715;39.432;-77.518;2024-03-02T02:34:18;100967.92;;;10.59;36.37
65013;BME280;51715;39.432;-77.518;2024-03-02T02:36:46;100968.36;;;10.58;36.37
65013;BME280;51715;39.432;-77.518;2024-03-02T02:39:17;100962.55;;;10.38;37.13
65013;BME280;51715;39.432;-77.518;2024-03-02T02:41:47;100956.65;;;10.35;37.22
65013;BME280;51715;39.432;-77.518;2024-03-02T02:44:15;100948.18;;;10.07;38.11
65013;BME280;51715;39.432;-77.518;2024-03-02T02:46:43;100945.11;;;10.39;37.66
65013;BME280;51715;39.432;-77.518;2024-03-02T02:49:12;100940.15;;;9.98;37.20
65013;BME280;51715;39.432;-77.518;2024-03-02T02:51:40;100942.44;;;10.72;36.78
65013;BME280;51715;39.432;-77.518;2024-03-02T02:54:09;100950.37;;;10.36;36.97
65013;BME280;51715;39.432;-77.518;2024-03-02T02:56:37;100950.11;;;10.53;37.58
65013;BME280;51715;39.432;-77.518;2024-03-02T02:59:05;100955.05;;;10.87;37.33
65013;BME280;51715;39.432;-77.518;2024-03-02T03:01:37;100961.08;;;10.02;37.55
65013;BME280;51715;39.432;-77.518;2024-03-02T03:04:04;100970.26;;;10.31;38.32
65013;BME280;51715;39.432;-77.518;2024-03-02T03:06:33;100978.99;;;10.06;38.53
65013;BME280;51715;39.432;-77.518;2024-03-02T03:09:03;100982.01;;;10.45;38.41
65013;BME280;51715;39.432;-77.518;2024-03-02T03:11:32;100992.68;;;10.35;39.40
65013;BME280;51715;39.432;-77.518;2024-03-02T03:14:02;100995.85;;;9.94;39.61
65013;BME280;51715;39.432;-77.518;2024-03-02T03:16:30;100994.21;;;9.79;40.04
65013;BME280;51715;39.432;-77.518;2024-03-02T03:18:58;100997.94;;;9.67;40.93
65013;BME280;51715;39.432;-77.518;2024-03-02T03:21:29;101000.80;;;9.37;41.88
65013;BME280;51715;39.432;-77.518;2024-03-02T03:23:57;101004.16;;;9.83;42.35
65013;BME280;51715;39.432;-77.518;2024-03-02T03:26:25;101002.00;;;9.65;43.62
65013;BME280;51715;39.432;-77.518;2024-03-02T03:28:55;101004.50;;;9.70;43.39
65013;BME280;51715;39.432;-77.518;2024-03-02T03:31:23;101008.90;;;9.64;43.47
65013;BME280;51715;39.432;-77.518;2024-03-02T03:33:52;101006.17;;;9.66;43.76
65013;BME280;51715;39.432;-77.518;2024-03-02T03:36:21;101000.43;;;9.35;44.55
65013;BME280;51715;39.432;-77.518;2024-03-02T03:38:50;101001.61;;;9.60;45.01
65013;BME280;51715;39.432;-77.518;2024-03-02T03:41:21;101000.12;;;9.05;45.70
65013;BME280;51715;39.432;-77.518;2024-03-02T03:43:50;101004.46;;;8.72;47.19
65013;BME280;51715;39.432;-77.518;2024-03-02T03:46:18;101001.29;;;8.76;47.05
65013;BME280;51715;39.432;-77.518;2024-03-02T03:48:46;100995.87;;;9.16;46.64
65013;BME280;51715;39.432;-77.518;2024-03-02T03:51:15;100987.23;;;9.11;46.71
65013;BME280;51715;39.432;-77.518;2024-03-02T03:53:44;100987.17;;;8.39;48.57
65013;BME280;51715;39.432;-77.518;2024-03-02T03:56:13;100984.85;;;8.06;48.86
65013;BME280;51715;39.432;-77.518;2024-03-02T03:58:41;100984.11;;;8.72;48.10
65013;BME280;51715;39.432;-77.518;2024-03-02T04:01:10;100982.64;;;8.71;47.86
65013;BME280;51715;39.432;-77.518;2024-03-02T04:03:39;100978.90;;;8.75;48.01
65013;BME280;51715;39.432;-77.518;2024-03-02T04:06:07;100974.16;;;8.43;48.61
65013;BME280;51715;39.432;-77.518;2024-03-02T04:08:35;100969.19;;;8.89;47.87
65013;BME280;51715;39.432;-77.518;2024-03-02T04:11:04;100967.75;;;8.37;48.59
65013;BME280;51715;39.432;-77.518;2024-03-02T04:13:33;100965.56;;;8.29;49.06
65013;BME280;51715;39.432;-77.518;2024-03-02T04:16:01;100967.35;;;8.41;48.79
65013;BME280;51715;39.432;-77.518;2024-03-02T04:18:30;100958.25;;;8.66;47.92
65013;BME280;51715;39.432;-77.518;2024-03-02T04:20:59;100951.10;;;8.60;48.47
65013;BME280;51715;39.432;-77.518;2024-03-02T04:23:28;100953.24;;;7.83;49.69
65013;BME280;51715;39.432;-77.518;2024-03-02T04:25:56;100945.38;;;8.24;49.08
65013;BME280;51715;39.432;-77.518;2024-03-02T04:28:27;100943.27;;;8.22;49.21
65013;BME280;51715;39.432;-77.518;2024-03-02T04:30:55;100938.63;;;7.56;51.28
65013;BME280;51715;39.432;-77.518;2024-03-02T04:33:23;100933.29;;;7.89;50.88
65013;BME280;51715;39.432;-77.518;2024-03-02T04:35:51;100935.53;;;7.45;50.97
65013;BME280;51715;39.432;-77.518;2024-03-02T04:38:19;100932.47;;;7.70;50.29
65013;BME280;51715;39.432;-77.518;2024-03-02T04:40:47;100929.55;;;8.05;49.53
65013;BME280;51715;39.432;-77.518;2024-03-02T04:43:16;100919.63;;;8.81;49.19
65013;BME280;51715;39.432;-77.518;2024-03-02T04:45:46;100914.71;;;8.36;49.17
65013;BME280;51715;39.432;-77.518;2024-03-02T04:48:14;100911.99;;;8.07;49.47
65013;BME280;51715;39.432;-77.518;2024-03-02T04:50:42;100909.41;;;8.09;49.55
65013;BME280;51715;39.432;-77.518;2024-03-02T04:53:12;100908.21;;;8.40;49.23
65013;BME280;51715;39.432;-77.518;2024-03-02T04:55:40;100907.60;;;8.43;49.28
65013;BME280;51715;39.432;-77.518;2024-03-02T04:58:08;100911.31;;;7.96;50.14
65013;BME280;51715;39.432;-77.518;2024-03-02T05:03:53;100909.53;;;7.74;49.47
65013;BME280;51715;39.432;-77.518;2024-03-02T05:06:23;100918.18;;;7.92;49.35
65013;BME280;51715;39.432;-77.518;2024-03-02T05:08:51;100921.89;;;7.47;50.56
65013;BME280;51715;39.432;-77.518;2024-03-02T05:11:20;100924.68;;;6.29;53.59
65013;BME280;51715;39.432;-77.518;2024-03-02T05:13:49;100921.11;;;7.10;53.51
65013;BME280;51715;39.432;-77.518;2024-03-02T05:16:18;100924.95;;;6.75;54.39
65013;BME280;51715;39.432;-77.518;2024-03-02T05:18:48;100914.44;;;7.01;53.06
65013;BME280;51715;39.432;-77.518;2024-03-02T05:21:16;100906.32;;;7.62;52.20
65013;BME280;51715;39.432;-77.518;2024-03-02T05:23:44;100900.63;;;7.73;51.59
65013;BME280;51715;39.432;-77.518;2024-03-02T05:26:12;100891.58;;;7.78;51.22
65013;BME280;51715;39.432;-77.518;2024-03-02T05:28:40;100890.50;;;7.91;50.38
65013;BME280;51715;39.432;-77.518;2024-03-02T05:31:10;100894.63;;;8.05;50.01
65013;BME280;51715;39.432;-77.518;2024-03-02T05:33:39;100887.67;;;7.77;51.14
65013;BME280;51715;39.432;-77.518;2024-03-02T05:36:07;100884.04;;;7.94;50.57
65013;BME280;51715;39.432;-77.518;2024-03-02T05:38:36;100874.92;;;8.19;49.93
65013;BME280;51715;39.432;-77.518;2024-03-02T05:41:04;100866.39;;;8.46;50.07
65013;BME280;51715;39.432;-77.518;2024-03-02T05:43:32;100860.52;;;7.61;51.43
65013;BME280;51715;39.432;-77.518;2024-03-02T05:46:01;100855.68;;;7.76;50.48
65013;BME280;51715;39.432;-77.518;2024-03-02T05:48:29;100855.57;;;7.36;51.89
65013;BME280;51715;39.432;-77.518;2024-03-02T05:50:58;100854.37;;;6.86;53.42
65013;BME280;51715;39.432;-77.518;2024-03-02T05:53:28;100857.97;;;7.14;52.78
65013;BME280;51715;39.432;-77.518;2024-03-02T05:55:57;100857.07;;;6.49;54.43
65013;BME280;51715;39.432;-77.518;2024-03-02T05:58:24;100859.39;;;7.00;52.95
65013;BME280;51715;39.432;-77.518;2024-03-02T06:00:52;100849.29;;;7.26;51.58
65013;BME280;51715;39.432;-77.518;2024-03-02T06:03:20;100837.97;;;8.00;51.04
65013;BME280;51715;39.432;-77.518;2024-03-02T06:05:51;100843.51;;;7.74;51.48
65013;BME280;51715;39.432;-77.518;2024-03-02T06:08:19;100838.54;;;7.01;52.66
65013;BME280;51715;39.432;-77.518;2024-03-02T06:10:47;100836.30;;;7.43;51.70
65013;BME280;51715;39.432;-77.518;2024-03-02T06:13:16;100838.67;;;8.28;50.45
65013;BME280;51715;39.432;-77.518;2024-03-02T06:15:46;100839.51;;;8.16;50.04
65013;BME280;51715;39.432;-77.518;2024-03-02T06:18:14;100834.30;;;8.31;49.60
65013;BME280;51715;39.432;-77.518;2024-03-02T06:20:42;100835.79;;;8.19;49.69
65013;BME280;51715;39.432;-77.518;2024-03-02T06:23:10;100830.20;;;8.48;49.34
65013;BME280;51715;39.432;-77.518;2024-03-02T06:25:38;100823.68;;;8.09;50.04
65013;BME280;51715;39.432;-77.518;2024-03-02T06:28:07;100828.69;;;7.99;50.32
65013;BME280;51715;39.432;-77.518;2024-03-02T06:30:34;100821.58;;;8.14;50.37
65013;BME280;51715;39.432;-77.518;2024-03-02T06:33:03;100816.97;;;7.45;50.28
65013;BME280;51715;39.432;-77.518;2024-03-02T06:35:31;100818.61;;;7.67;50.69
65013;BME280;51715;39.432;-77.518;2024-03-02T06:37:59;100822.84;;;6.82;52.74
65013;BME280;51715;39.432;-77.518;2024-03-02T06:40:27;100816.65;;;6.64;53.30
65013;BME280;51715;39.432;-77.518;2024-03-02T06:42:55;100813.53;;;6.66;53.31
65013;BME280;51715;39.432;-77.518;2024-03-02T06:45:23;100805.77;;;6.68;52.51
65013;BME280;51715;39.432;-77.518;2024-03-02T06:47:51;100798.00;;;7.25;51.55
65013;BME280;51715;39.432;-77.518;2024-03-02T06:50:19;100788.10;;;7.88;50.42
65013;BME280;51715;39.432;-77.518;2024-03-02T06:52:47;100790.02;;;7.45;50.82
65013;BME280;51715;39.432;-77.518;2024-03-02T06:55:16;100784.42;;;7.26;51.25
65013;BME280;51715;39.432;-77.518;2024-03-02T06:57:45;100777.52;;;7.60;50.75
65013;BME280;51715;39.432;-77.518;2024-03-02T07:00:14;100771.72;;;7.46;51.07
65013;BME280;51715;39.432;-77.518;2024-03-02T07:02:43;100771.55;;;7.02;51.69
65013;BME280;51715;39.432;-77.518;2024-03-02T07:05:11;100768.89;;;7.15;51.51
65013;BME280;51715;39.432;-77.518;2024-03-02T07:07:40;100762.12;;;7.35;51.43
65013;BME280;51715;39.432;-77.518;2024-03-02T07:10:11;100756.50;;;7.23;51.39
65013;BME280;51715;39.432;-77.518;2024-03-02T07:12:41;100750.88;;;7.85;50.16
65013;BME280;51715;39.432;-77.518;2024-03-02T07:15:09;100747.27;;;7.46;50.49
65013;BME280;51715;39.432;-77.518;2024-03-02T07:17:37;100742.35;;;7.60;50.55
65013;BME280;51715;39.432;-77.518;2024-03-02T07:20:07;100737.04;;;7.22;51.21
65013;BME280;51715;39.432;-77.518;2024-03-02T07:22:36;100739.10;;;6.94;51.59
65013;BME280;51715;39.432;-77.518;2024-03-02T07:25:05;100734.70;;;6.65;52.69
65013;BME280;51715;39.432;-77.518;2024-03-02T07:27:34;100728.38;;;6.51;52.63
65013;BME280;51715;39.432;-77.518;2024-03-02T07:30:04;100718.10;;;4.97;57.18
65013;BME280;51715;39.432;-77.518;2024-03-02T07:32:34;100716.28;;;5.58;56.43
65013;BME280;51715;39.432;-77.518;2024-03-02T07:35:02;100716.56;;;6.13;54.80
65013;BME280;51715;39.432;-77.518;2024-03-02T07:37:29;100710.33;;;5.83;55.07
65013;BME280;51715;39.432;-77.518;2024-03-02T07:39:57;100698.48;;;6.05;54.68
65013;BME280;51715;39.432;-77.518;2024-03-02T07:42:25;100692.26;;;5.86;55.01
65013;BME280;51715;39.432;-77.518;2024-03-02T07:44:53;100686.07;;;5.52;56.25
65013;BME280;51715;39.432;-77.518;2024-03-02T07:47:22;100676.64;;;5.97;54.89
65013;BME280;51715;39.432;-77.518;2024-03-02T07:49:50;100681.69;;;5.86;55.23
65013;BME280;51715;39.432;-77.518;2024-03-02T07:52:18;100682.53;;;5.93;54.60
65013;BME280;51715;39.432;-77.518;2024-03-02T07:54:48;100682.68;;;6.52;53.50
65013;BME280;51715;39.432;-77.518;2024-03-02T07:57:17;100684.25;;;6.71;52.46
65013;BME280;51715;39.432;-77.518;2024-03-02T07:59:46;100676.67;;;7.20;51.92
65013;BME280;51715;39.432;-77.518;2024-03-02T08:02:14;100663.75;;;7.64;50.64
65013;BME280;51715;39.432;-77.518;2024-03-02T08:04:42;100656.50;;;7.82;50.46
65013;BME280;51715;39.432;-77.518;2024-03-02T08:07:10;100659.73;;;6.42;53.44
65013;BME280;51715;39.432;-77.518;2024-03-02T08:09:38;100653.42;;;6.58;52.98
65013;BME280;51715;39.432;-77.518;2024-03-02T08:12:07;100653.15;;;6.69;52.39
65013;BME280;51715;39.432;-77.518;2024-03-02T08:14:36;100643.03;;;6.84;53.06
65013;BME280;51715;39.432;-77.518;2024-03-02T08:17:05;100643.56;;;5.93;55.41
65013;BME280;51715;39.432;-77.518;2024-03-02T08:19:33;100638.56;;;5.27;56.98
65013;BME280;51715;39.432;-77.518;2024-03-02T08:22:03;100639.25;;;5.44;57.19
65013;BME280;51715;39.432;-77.518;2024-03-02T08:24:32;100637.36;;;5.67;55.55
65013;BME280;51715;39.432;-77.518;2024-03-02T08:27:00;100635.82;;;5.33;57.45
65013;BME280;51715;39.432;-77.518;2024-03-02T08:29:29;100637.58;;;5.49;57.31
65013;BME280;51715;39.432;-77.518;2024-03-02T08:31:58;100634.53;;;6.18;54.43
65013;BME280;51715;39.432;-77.518;2024-03-02T08:34:27;100634.17;;;7.04;53.40
65013;BME280;51715;39.432;-77.518;2024-03-02T08:36:56;100628.40;;;5.84;55.27
65013;BME280;51715;39.432;-77.518;2024-03-02T08:39:24;100621.93;;;6.29;54.60
65013;BME280;51715;39.432;-77.518;2024-03-02T08:41:52;100620.02;;;6.37;55.32
65013;BME280;51715;39.432;-77.518;2024-03-02T08:44:20;100611.00;;;6.18;55.01
65013;BME280;51715;39.432;-77.518;2024-03-02T08:46:49;100610.63;;;6.79;53.71
65013;BME280;51715;39.432;-77.518;2024-03-02T08:49:17;100609.76;;;7.23;52.55
65013;BME280;51715;39.432;-77.518;2024-03-02T08:51:45;100607.41;;;7.06;52.80
65013;BME280;51715;39.432;-77.518;2024-03-02T08:54:14;100599.15;;;6.57;52.99
65013;BME280;51715;39.432;-77.518;2024-03-02T08:56:42;100591.78;;;7.35;52.39
65013;BME280;51715;39.432;-77.518;2024-03-02T08:59:10;100596.95;;;7.02;52.48
65013;BME280;51715;39.432;-77.518;2024-03-02T09:01:38;100592.91;;;7.44;51.56
65013;BME280;51715;39.432;-77.518;2024-03-02T09:04:07;100592.88;;;7.64;50.46
65013;BME280;51715;39.432;-77.518;2024-03-02T09:06:35;100594.43;;;8.06;50.03
65013;BME280;51715;39.432;-77.518;2024-03-02T09:09:04;100593.67;;;7.79;50.43
65013;BME280;51715;39.432;-77.518;2024-03-02T09:11:32;100584.53;;;7.31;51.59
65013;BME280;51715;39.432;-77.518;2024-03-02T09:14:00;100579.70;;;6.38;52.95
65013;BME280;51715;39.432;-77.518;2024-03-02T09:16:28;100568.19;;;7.44;51.60
65013;BME280;51715;39.432;-77.518;2024-03-02T09:18:57;100560.19;;;5.96;54.53
65013;BME280;51715;39.432;-77.518;2024-03-02T09:21:29;100559.49;;;6.02;55.33
65013;BME280;51715;39.432;-77.518;2024-03-02T09:23:57;100563.68;;;4.74;58.15
65013;BME280;51715;39.432;-77.518;2024-03-02T09:26:26;100555.31;;;5.02;58.28
65013;BME280;51715;39.432;-77.518;2024-03-02T09:28:55;100553.85;;;5.11;58.05
65013;BME280;51715;39.432;-77.518;2024-03-02T09:31:26;100556.07;;;5.08;59.02
65013;BME280;51715;39.432;-77.518;2024-03-02T09:33:54;100558.15;;;5.08;57.83
65013;BME280;51715;39.432;-77.518;2024-03-02T09:36:22;100547.74;;;5.82;56.82
65013;BME280;51715;39.432;-77.518;2024-03-02T09:38:51;100552.54;;;5.96;56.50
65013;BME280;51715;39.432;-77.518;2024-03-02T09:41:20;100550.05;;;5.08;59.31
65013;BME280;51715;39.432;-77.518;2024-03-02T09:43:49;100542.94;;;4.89;60.34
65013;BME280;51715;39.432;-77.518;2024-03-02T09:46:18;100536.08;;;4.47;61.98
65013;BME280;51715;39.432;-77.518;2024-03-02T09:48:49;100545.97;;;4.21;61.74
65013;BME280;51715;39.432;-77.518;2024-03-02T09:51:18;100542.44;;;4.57;60.89
65013;BME280;51715;39.432;-77.518;2024-03-02T09:53:48;100532.79;;;4.94;60.24
65013;BME280;51715;39.432;-77.518;2024-03-02T09:56:18;100528.80;;;3.35;65.71
65013;BME280;51715;39.432;-77.518;2024-03-02T09:58:46;100515.84;;;4.40;62.31
65013;BME280;51715;39.432;-77.518;2024-03-02T10:01:15;100508.69;;;4.33;61.30
65013;BME280;51715;39.432;-77.518;2024-03-02T10:03:45;100511.30;;;3.56;63.04
65013;BME280;51715;39.432;-77.518;2024-03-02T10:06:22;100509.01;;;3.40;63.77
65013;BME280;51715;39.432;-77.518;2024-03-02T10:08:51;100502.13;;;1.80;72.19
65013;BME280;51715;39.432;-77.518;2024-03-02T10:11:29;100494.12;;;2.42;70.37
65013;BME280;51715;39.432;-77.518;2024-03-02T10:14:06;100502.33;;;2.77;67.73
65013;BME280;51715;39.432;-77.518;2024-03-02T10:16:36;100487.51;;;3.17;66.38
65013;BME280;51715;39.432;-77.518;2024-03-02T10:19:17;100482.48;;;3.94;63.21
65013;BME280;51715;39.432;-77.518;2024-03-02T10:21:49;100471.00;;;3.63;65.71
65013;BME280;51715;39.432;-77.518;2024-03-02T10:24:18;100465.60;;;2.58;66.70
65013;BME280;51715;39.432;-77.518;2024-03-02T10:26:48;100458.67;;;2.73;69.02
65013;BME280;51715;39.432;-77.518;2024-03-02T10:29:16;100475.44;;;2.11;70.07
65013;BME280;51715;39.432;-77.518;2024-03-02T10:31:46;100454.06;;;2.75;67.22
65013;BME280;51715;39.432;-77.518;2024-03-02T10:34:15;100450.57;;;3.28;65.13
65013;BME280;51715;39.432;-77.518;2024-03-02T10:36:44;100458.53;;;2.37;69.04
65013;BME280;51715;39.432;-77.518;2024-03-02T10:39:15;100469.05;;;2.34;68.05
65013;BME280;51715;39.432;-77.518;2024-03-02T10:41:44;100435.03;;;3.39;65.24
65013;BME280;51715;39.432;-77.518;2024-03-02T10:44:13;100443.26;;;2.94;65.49
65013;BME280;51715;39.432;-77.518;2024-03-02T10:46:44;100441.29;;;1.85;69.90
65013;BME280;51715;39.432;-77.518;2024-03-02T10:49:13;100431.62;;;3.12;66.18
65013;BME280;51715;39.432;-77.518;2024-03-02T10:51:42;100436.92;;;1.94;69.77
65013;BME280;51715;39.432;-77.518;2024-03-02T10:54:11;100439.07;;;1.31;72.36
65013;BME280;51715;39.432;-77.518;2024-03-02T10:56:40;100436.83;;;1.10;74.45
65013;BME280;51715;39.432;-77.518;2024-03-02T10:59:17;100434.67;;;1.16;73.41
65013;BME280;51715;39.432;-77.518;2024-03-02T11:01:50;100430.33;;;1.84;71.38
65013;BME280;51715;39.432;-77.518;2024-03-02T11:04:19;100439.59;;;1.50;72.98
65013;BME280;51715;39.432;-77.518;2024-03-02T11:06:50;100436.69;;;2.62;69.21
65013;BME280;51715;39.432;-77.518;2024-03-02T11:09:21;100430.65;;;2.68;67.70
65013;BME280;51715;39.432;-77.518;2024-03-02T11:11:59;100411.22;;;2.32;69.32
65013;BME280;51715;39.432;-77.518;2024-03-02T11:14:31;100411.15;;;2.59;67.73
65013;BME280;51715;39.432;-77.518;2024-03-02T11:17:01;100410.36;;;2.46;68.44
65013;BME280;51715;39.432;-77.518;2024-03-02T11:19:30;100409.96;;;2.67;68.75
65013;BME280;51715;39.432;-77.518;2024-03-02T11:21:59;100407.95;;;2.24;70.07
65013;BME280;51715;39.432;-77.518;2024-03-02T11:24:33;100415.65;;;2.19;70.34
65013;BME280;51715;39.432;-77.518;2024-03-02T11:27:02;100406.86;;;2.69;68.47
65013;BME280;51715;39.432;-77.518;2024-03-02T11:29:48;100409.88;;;1.92;72.47
65013;BME280;51715;39.432;-77.518;2024-03-02T11:32:20;100389.74;;;2.27;72.30
65013;BME280;51715;39.432;-77.518;2024-03-02T11:34:50;100394.86;;;1.53;75.20
65013;BME280;51715;39.432;-77.518;2024-03-02T11:37:20;100397.98;;;1.73;75.97
65013;BME280;51715;39.432;-77.518;2024-03-02T11:39:50;100396.91;;;2.03;73.95
65013;BME280;51715;39.432;-77.518;2024-03-02T11:42:20;100396.06;;;2.73;72.19
65013;BME280;51715;39.432;-77.518;2024-03-02T11:44:48;100377.25;;;3.09;70.52
65013;BME280;51715;39.432;-77.518;2024-03-02T11:47:18;100384.68;;;2.89;71.77
65013;BME280;51715;39.432;-77.518;2024-03-02T11:49:49;100387.37;;;2.93;71.28
65013;BME280;51715;39.432;-77.518;2024-03-02T11:52:18;100393.40;;;2.77;71.31
65013;BME280;51715;39.432;-77.518;2024-03-02T11:54:47;100391.21;;;3.06;70.16
65013;BME280;51715;39.432;-77.518;2024-03-02T11:57:17;100388.91;;;3.37;68.97
65013;BME280;51715;39.432;-77.518;2024-03-02T11:59:46;100399.14;;;2.79;70.28
65013;BME280;51715;39.432;-77.518;2024-03-02T12:02:16;100396.01;;;2.53;71.59
65013;BME280;51715;39.432;-77.518;2024-03-02T12:04:45;100387.37;;;3.88;66.79
65013;BME280;51715;39.432;-77.518;2024-03-02T12:07:20;100388.09;;;3.42;68.52
65013;BME280;51715;39.432;-77.518;2024-03-02T12:09:49;100389.55;;;3.06;69.98
65013;BME280;51715;39.432;-77.518;2024-03-02T12:12:28;100379.33;;;4.53;65.24
65013;BME280;51715;39.432;-77.518;2024-03-02T12:14:57;100382.33;;;3.92;67.16
65013;BME280;51715;39.432;-77.518;2024-03-02T12:17:25;100387.83;;;3.47;69.04
65013;BME280;51715;39.432;-77.518;2024-03-02T12:20:02;100385.30;;;4.37;66.24
65013;BME280;51715;39.432;-77.518;2024-03-02T12:22:32;100376.03;;;4.80;65.06
65013;BME280;51715;39.432;-77.518;2024-03-02T12:25:00;100380.81;;;4.59;65.16
65013;BME280;51715;39.432;-77.518;2024-03-02T12:27:29;100383.89;;;3.99;68.40
65013;BME280;51715;39.432;-77.518;2024-03-02T12:29:57;100380.35;;;5.11;64.88
65013;BME280;51715;39.432;-77.518;2024-03-02T12:32:27;100377.17;;;5.56;62.65
65013;BME280;51715;39.432;-77.518;2024-03-02T12:34:56;100380.86;;;4.60;66.08
65013;BME280;51715;39.432;-77.518;2024-03-02T12:37:24;100371.62;;;6.01;62.46
65013;BME280;51715;39.432;-77.518;2024-03-02T12:39:53;100370.39;;;5.20;63.05
65013;BME280;51715;39.432;-77.518;2024-03-02T12:42:20;100365.44;;;5.22;63.62
65013;BME280;51715;39.432;-77.518;2024-03-02T12:44:48;100364.38;;;5.18;63.32
65013;BME280;51715;39.432;-77.518;2024-03-02T12:47:17;100353.75;;;6.27;60.97
65013;BME280;51715;39.432;-77.518;2024-03-02T12:49:46;100350.53;;;5.42;63.02
65013;BME280;51715;39.432;-77.518;2024-03-02T12:52:14;100343.94;;;6.84;60.17